createdAt,value
2022-09-04T00:01:55.312Z,1.43
2022-09-04T00:04:25.701Z,1.33
2022-09-04T00:07:04.922Z,1.53
2022-09-04T00:09:51.007Z,1.57
2022-09-04T00:12:26.963Z,1.50
2022-09-04T00:15:13.693Z,1.60
2022-09-04T00:17:54.014Z,1.90
2022-09-04T00:20:26.835Z,1.70
2022-09-04T00:23:09.472Z,1.17
2022-09-04T00:25:57.490Z,1.97
2022-09-04T00:28:42.925Z,1.73
2022-09-04T00:31:29.205Z,1.80
2022-09-04T00:34:18.896Z,2.37
2022-09-04T00:36:50.379Z,2.10
2022-09-04T00:39:38.705Z,1.60
2022-09-04T00:42:13.175Z,2.70
2022-09-04T00:45:01.106Z,1.80
2022-09-04T00:47:42.427Z,1.73
2022-09-04T00:50:54.975Z,1.70
2022-09-04T00:53:37.827Z,1.77
2022-09-04T00:56:29.699Z,1.87
2022-09-04T00:59:34.827Z,1.57
2022-09-04T01:02:28.832Z,1.50
2022-09-04T01:05:19.989Z,1.40
2022-09-04T01:07:56.774Z,2.20
2022-09-04T01:10:44.732Z,2.20
2022-09-04T01:13:27.132Z,1.73
2022-09-04T01:16:01.828Z,1.30
2022-09-04T01:18:56.417Z,1.60
2022-09-04T01:21:44.247Z,2.00
2022-09-04T01:24:23.636Z,1.43
2022-09-04T01:27:06.122Z,1.60
2022-09-04T01:30:05.643Z,1.90
2022-09-04T01:33:00.658Z,1.37
2022-09-04T01:35:33.954Z,1.53
2022-09-04T01:38:15.123Z,1.63
2022-09-04T01:40:45.624Z,1.50
2022-09-04T01:43:17.899Z,1.57
2022-09-04T01:46:05.133Z,1.37
2022-09-04T01:48:57.035Z,1.23
2022-09-04T01:51:48.231Z,1.70
2022-09-04T01:54:33.058Z,1.80
2022-09-04T01:57:20.531Z,1.57
2022-09-04T02:00:02.382Z,1.40
2022-09-04T02:02:53.524Z,1.30
2022-09-04T02:05:40.015Z,1.50
2022-09-04T02:08:39.350Z,1.43
2022-09-04T02:11:19.675Z,1.60
2022-09-04T02:14:09.835Z,1.43
2022-09-04T02:16:46.108Z,1.40
2022-09-04T02:19:39.433Z,1.50
2022-09-04T02:22:40.009Z,1.13
2022-09-04T02:25:31.706Z,1.23
2022-09-04T02:28:09.064Z,1.50
2022-09-04T02:31:00.056Z,1.30
2022-09-04T02:33:39.375Z,1.40
2022-09-04T02:36:23.075Z,1.80
2022-09-04T02:39:21.987Z,1.60
2022-09-04T02:42:21.216Z,1.30
2022-09-04T02:45:12.243Z,1.43
2022-09-04T02:48:04.703Z,1.60
2022-09-04T02:50:53.659Z,1.50
2022-09-04T02:53:49.832Z,1.43
2022-09-04T02:56:27.824Z,1.30
2022-09-04T02:59:13.452Z,1.50
2022-09-04T03:01:52.373Z,1.50
2022-09-04T03:04:24.499Z,1.30
2022-09-04T03:06:56.292Z,1.33
2022-09-04T03:09:46.719Z,2.00
2022-09-04T03:12:37.891Z,1.43
2022-09-04T03:15:10.412Z,1.70
2022-09-04T03:17:46.646Z,1.60
2022-09-04T03:20:26.251Z,1.50
2022-09-04T03:23:13.376Z,1.67
2022-09-04T03:25:40.320Z,1.80
2022-09-04T03:28:12.612Z,1.57
2022-09-04T03:30:40.651Z,1.40
2022-09-04T03:33:31.607Z,1.23
2022-09-04T03:35:58.794Z,1.50
2022-09-04T03:39:04.665Z,1.43
2022-09-04T03:41:58.850Z,1.50
2022-09-04T03:44:40.627Z,1.60
2022-09-04T03:47:16.663Z,1.40
2022-09-04T03:50:08.517Z,1.80
2022-09-04T03:52:50.524Z,1.40
2022-09-04T03:55:49.527Z,1.70
2022-09-04T03:58:45.565Z,1.80
2022-09-04T04:01:43.179Z,1.40
2022-09-04T04:04:38.203Z,1.67
2022-09-04T04:07:11.420Z,1.30
2022-09-04T04:10:00.028Z,1.67
2022-09-04T04:12:49.854Z,1.50
2022-09-04T04:15:30.286Z,1.50
2022-09-04T04:18:36.335Z,1.60
2022-09-04T04:21:37.883Z,2.50
2022-09-04T04:24:30.144Z,1.80
2022-09-04T04:27:33.952Z,1.50
2022-09-04T04:30:14.547Z,1.80
2022-09-04T04:32:56.002Z,1.60
2022-09-04T04:35:29.076Z,1.63
2022-09-04T04:38:18.633Z,1.97
2022-09-04T04:41:09.570Z,1.63
2022-09-04T04:43:50.275Z,1.50
2022-09-04T04:46:36.263Z,1.50
2022-09-04T04:49:15.383Z,1.30
2022-09-04T04:52:00.184Z,1.60
2022-09-04T04:54:57.039Z,1.40
2022-09-04T04:57:53.656Z,1.60
2022-09-04T05:00:29.119Z,1.63
2022-09-04T05:03:07.710Z,2.00
2022-09-04T05:05:43.747Z,1.77
2022-09-04T05:08:20.269Z,1.70
2022-09-04T05:11:00.026Z,1.80
2022-09-04T05:13:57.340Z,1.67
2022-09-04T05:16:50.041Z,1.60
2022-09-04T05:19:22.699Z,1.63
2022-09-04T05:22:09.406Z,1.43
2022-09-04T05:25:04.888Z,1.60
2022-09-04T05:27:53.160Z,1.70
2022-09-04T05:30:32.270Z,1.60
2022-09-04T05:33:12.580Z,1.53
2022-09-04T05:35:59.274Z,1.60
2022-09-04T05:38:34.466Z,1.37
2022-09-04T05:41:29.815Z,1.40
2022-09-04T05:44:18.000Z,1.70
2022-09-04T05:47:13.601Z,1.23
2022-09-04T05:50:13.121Z,1.30
2022-09-04T05:53:11.190Z,1.57
2022-09-04T05:56:04.984Z,1.63
2022-09-04T05:59:06.033Z,1.67
2022-09-04T06:01:57.756Z,1.30
2022-09-04T06:05:00.113Z,1.40
2022-09-04T06:07:35.180Z,1.43
2022-09-04T06:10:27.114Z,1.35
2022-09-04T06:13:29.002Z,1.20
2022-09-04T06:15:59.155Z,1.38
2022-09-04T06:18:49.376Z,1.10
2022-09-04T06:21:35.154Z,1.20
2022-09-04T06:24:11.124Z,1.20
2022-09-04T06:26:52.000Z,1.20
2022-09-04T06:29:47.375Z,1.23
2022-09-04T06:32:42.077Z,1.08
2022-09-04T06:35:37.102Z,1.10
2022-09-04T06:38:28.731Z,1.17
2022-09-04T06:41:18.549Z,1.30
2022-09-04T06:43:59.500Z,1.10
2022-09-04T06:46:33.966Z,1.20
2022-09-04T06:49:03.987Z,1.10
2022-09-04T06:51:52.647Z,1.13
2022-09-04T06:54:32.370Z,0.90
2022-09-04T06:57:23.651Z,1.10
2022-09-04T07:00:18.125Z,1.10
2022-09-04T07:03:03.458Z,1.00
2022-09-04T07:05:59.101Z,1.10
2022-09-04T07:08:58.194Z,0.82
2022-09-04T07:11:28.276Z,0.93
2022-09-04T07:14:00.726Z,0.80
2022-09-04T07:16:45.933Z,0.70
2022-09-04T07:19:33.155Z,0.95
2022-09-04T07:22:29.791Z,0.70
2022-09-04T07:25:26.356Z,0.80
2022-09-04T07:28:04.138Z,0.70
2022-09-04T07:30:41.555Z,0.65
2022-09-04T07:33:27.768Z,0.70
2022-09-04T07:36:08.347Z,0.77
2022-09-04T07:38:41.332Z,0.75
2022-09-04T07:41:20.082Z,0.60
2022-09-04T07:44:05.973Z,0.60
2022-09-04T07:46:47.103Z,0.60
2022-09-04T07:49:17.163Z,0.60
2022-09-04T07:52:20.081Z,0.70
2022-09-04T07:54:56.820Z,0.40
2022-09-04T07:58:05.054Z,0.60
2022-09-04T08:00:51.607Z,0.47
2022-09-04T08:03:49.188Z,0.40
2022-09-04T08:06:42.479Z,0.30
2022-09-04T08:09:47.264Z,0.75
2022-09-04T08:12:39.420Z,0.40
2022-09-04T08:15:20.194Z,0.38
2022-09-04T08:18:04.491Z,0.47
2022-09-04T08:20:43.416Z,0.47
2022-09-04T08:23:38.291Z,0.45
2022-09-04T08:26:38.909Z,0.50
2022-09-04T08:29:57.559Z,0.30
2022-09-04T08:32:37.890Z,0.40
2022-09-04T08:35:13.459Z,0.38
2022-09-04T08:37:46.584Z,0.63
2022-09-04T08:40:38.056Z,0.60
2022-09-04T08:43:23.791Z,0.50
2022-09-04T08:46:05.941Z,0.32
2022-09-04T08:49:20.068Z,0.40
2022-09-04T08:52:38.084Z,0.47
2022-09-04T08:55:14.300Z,0.40
2022-09-04T08:58:12.570Z,0.40
2022-09-04T09:00:55.790Z,0.50
2022-09-04T09:03:44.676Z,0.40
2022-09-04T09:06:44.509Z,0.40
2022-09-04T09:09:47.078Z,0.47
2022-09-04T09:12:41.841Z,0.47
2022-09-04T09:15:17.628Z,0.30
2022-09-04T09:18:12.536Z,0.40
2022-09-04T09:21:01.396Z,0.40
2022-09-04T09:23:50.752Z,0.32
2022-09-04T09:26:29.522Z,0.30
2022-09-04T09:29:08.779Z,0.40
2022-09-04T09:32:31.534Z,0.43
2022-09-04T09:35:23.421Z,0.45
2022-09-04T09:38:20.019Z,0.40
2022-09-04T09:41:00.543Z,0.40
2022-09-04T09:43:42.366Z,0.50
2022-09-04T09:46:50.715Z,0.50
2022-09-04T09:49:49.974Z,0.47
2022-09-04T09:52:49.107Z,0.30
2022-09-04T09:55:25.403Z,0.40
2022-09-04T09:57:52.408Z,0.45
2022-09-04T10:00:24.060Z,0.20
2022-09-04T10:03:26.076Z,0.32
2022-09-04T10:06:27.300Z,0.32
2022-09-04T10:09:33.193Z,0.40
2022-09-04T10:12:20.367Z,0.40
2022-09-04T10:14:59.588Z,0.30
2022-09-04T10:17:53.758Z,0.30
2022-09-04T10:20:32.388Z,0.63
2022-09-04T10:23:35.825Z,0.40
2022-09-04T10:26:31.935Z,0.40
2022-09-04T10:29:31.550Z,0.30
2022-09-04T10:32:49.128Z,0.30
2022-09-04T10:35:25.967Z,0.50
2022-09-04T10:38:02.003Z,0.25
2022-09-04T10:41:12.326Z,0.47
2022-09-04T10:44:08.576Z,0.38
2022-09-04T10:47:07.895Z,0.40
2022-09-04T10:49:54.011Z,0.38
2022-09-04T10:52:48.604Z,0.35
2022-09-04T10:55:44.177Z,0.30
2022-09-04T10:58:29.019Z,0.30
2022-09-04T11:01:24.045Z,0.30
2022-09-04T11:04:00.195Z,0.30
2022-09-04T11:07:18.158Z,0.47
2022-09-04T11:10:04.444Z,0.43
2022-09-04T11:13:06.040Z,0.30
2022-09-04T11:15:48.040Z,0.30
2022-09-04T11:18:25.103Z,0.20
2022-09-04T11:21:17.023Z,0.50
2022-09-04T11:24:12.734Z,0.40
2022-09-04T11:26:39.917Z,0.20
2022-09-04T11:29:24.874Z,0.43
2022-09-04T11:32:22.811Z,0.35
2022-09-04T11:35:08.537Z,0.63
2022-09-04T11:37:57.786Z,0.30
2022-09-04T11:40:25.164Z,0.40
2022-09-04T11:43:09.463Z,0.22
2022-09-04T11:46:15.200Z,0.30
2022-09-04T11:49:09.433Z,0.30
2022-09-04T11:51:45.804Z,0.30
2022-09-04T11:54:24.680Z,0.43
2022-09-04T11:57:10.754Z,0.40
2022-09-04T11:59:52.474Z,0.35
2022-09-04T12:02:37.555Z,0.43
2022-09-04T12:05:39.287Z,0.60
2022-09-04T12:08:38.595Z,0.40
2022-09-04T12:11:19.303Z,0.30
2022-09-04T12:14:15.473Z,0.50
2022-09-04T12:16:57.372Z,0.47
2022-09-04T12:19:53.449Z,1.02
2022-09-04T12:22:50.300Z,0.80
2022-09-04T12:25:38.771Z,0.80
2022-09-04T12:28:11.923Z,0.90
2022-09-04T12:30:52.647Z,1.05
2022-09-04T12:33:59.609Z,0.52
2022-09-04T12:36:42.232Z,0.88
2022-09-04T12:39:40.521Z,0.50
2022-09-04T12:42:25.272Z,0.70
2022-09-04T12:45:11.122Z,0.55
2022-09-04T12:48:11.215Z,0.73
2022-09-04T12:51:12.213Z,0.80
2022-09-04T12:54:04.337Z,0.75
2022-09-04T12:56:44.402Z,0.80
2022-09-04T12:59:19.740Z,0.50
2022-09-04T13:02:00.838Z,0.47
2022-09-04T13:04:33.766Z,0.40
2022-09-04T13:07:16.324Z,0.28
2022-09-04T13:09:53.709Z,0.40
2022-09-04T13:12:59.795Z,0.30
2022-09-04T13:15:34.336Z,0.40
2022-09-04T13:18:39.425Z,0.50
2022-09-04T13:21:25.698Z,0.60
2022-09-04T13:24:28.145Z,0.60
2022-09-04T13:27:00.750Z,0.60
2022-09-04T13:29:53.713Z,0.30
2022-09-04T13:32:45.082Z,0.60
2022-09-04T13:35:28.098Z,0.60
2022-09-04T13:38:15.417Z,0.70
2022-09-04T13:41:02.284Z,0.73
2022-09-04T13:43:41.779Z,0.50
2022-09-04T13:46:15.973Z,0.73
2022-09-04T13:48:46.084Z,0.45
2022-09-04T13:51:33.040Z,0.65
2022-09-04T13:54:18.107Z,0.75
2022-09-04T13:57:03.857Z,0.63
2022-09-04T13:59:31.396Z,0.60
2022-09-04T14:02:05.080Z,0.60
2022-09-04T14:04:48.092Z,0.60
2022-09-04T14:07:26.946Z,0.77
2022-09-04T14:09:57.883Z,0.82
2022-09-04T14:12:32.924Z,0.60
2022-09-04T14:15:34.979Z,0.73
2022-09-04T14:18:08.379Z,0.70
2022-09-04T14:21:00.924Z,0.68
2022-09-04T14:23:47.479Z,0.68
2022-09-04T14:26:24.627Z,0.77
2022-09-04T14:29:04.231Z,0.50
2022-09-04T14:31:57.389Z,0.70
2022-09-04T14:34:30.479Z,0.75
2022-09-04T14:37:08.174Z,0.90
2022-09-04T14:40:06.777Z,0.65
2022-09-04T14:42:33.843Z,0.80
2022-09-04T14:45:18.288Z,0.68
2022-09-04T14:47:55.814Z,0.70
2022-09-04T14:50:28.619Z,0.68
2022-09-04T14:53:01.260Z,0.77
2022-09-04T14:55:34.828Z,0.90
2022-09-04T14:58:33.407Z,0.95
2022-09-04T15:01:23.693Z,0.80
2022-09-04T15:03:59.383Z,0.60
2022-09-04T15:07:10.762Z,1.13
2022-09-04T15:09:42.870Z,0.70
2022-09-04T15:12:24.536Z,0.90
2022-09-04T15:15:09.327Z,0.70
2022-09-04T15:17:46.911Z,0.90
2022-09-04T15:20:23.542Z,0.77
2022-09-04T15:23:05.727Z,0.77
2022-09-04T15:25:58.746Z,0.90
2022-09-04T15:28:50.294Z,0.85
2022-09-04T15:31:21.817Z,0.70
2022-09-04T15:33:49.308Z,0.82
2022-09-04T15:36:16.386Z,1.05
2022-09-04T15:38:51.873Z,0.82
2022-09-04T15:41:37.563Z,0.85
2022-09-04T15:44:19.720Z,0.95
2022-09-04T15:47:38.092Z,1.00
2022-09-04T15:50:18.317Z,0.80
2022-09-04T15:53:12.640Z,1.70
2022-09-04T15:55:44.486Z,0.93
2022-09-04T15:58:14.978Z,0.90
2022-09-04T16:01:06.645Z,0.75
2022-09-04T16:03:47.477Z,0.80
2022-09-04T16:06:43.662Z,0.60
2022-09-04T16:09:31.279Z,0.60
2022-09-04T16:12:05.341Z,0.63
2022-09-04T16:14:44.664Z,0.65
2022-09-04T16:17:33.487Z,1.30
2022-09-04T16:20:13.189Z,0.70
2022-09-04T16:22:49.514Z,0.77
2022-09-04T16:25:23.466Z,0.80
2022-09-04T16:28:08.408Z,1.10
2022-09-04T16:30:57.131Z,0.75
2022-09-04T16:33:33.271Z,0.80
2022-09-04T16:36:08.848Z,0.85
2022-09-04T16:38:47.578Z,0.88
2022-09-04T16:41:42.758Z,0.75
2022-09-04T16:44:15.676Z,0.80
2022-09-04T16:47:17.320Z,0.80
2022-09-04T16:49:56.164Z,1.00
2022-09-04T16:52:36.835Z,0.80
2022-09-04T16:55:31.355Z,1.00
2022-09-04T16:58:50.243Z,1.23
2022-09-04T17:01:41.215Z,0.68
2022-09-04T17:04:17.482Z,0.77
2022-09-04T17:06:54.380Z,1.15
2022-09-04T17:09:28.020Z,1.40
2022-09-04T17:12:04.087Z,4.85
2022-09-04T17:14:35.295Z,3.10
2022-09-04T17:17:30.214Z,2.05
2022-09-04T17:20:11.513Z,3.03
2022-09-04T17:28:56.326Z,2.00
2022-09-04T17:29:13.981Z,1.50
2022-09-04T17:29:16.665Z,1.42
2022-09-04T17:31:45.462Z,1.30
2022-09-04T17:40:36.205Z,1.10
2022-09-04T17:40:41.017Z,1.30
2022-09-04T17:40:41.418Z,1.13
2022-09-04T17:43:22.209Z,1.17
2022-09-04T17:45:59.443Z,1.13
2022-09-04T17:48:39.752Z,1.10
2022-09-04T17:51:10.203Z,1.38
2022-09-04T17:53:40.537Z,1.00
2022-09-04T17:56:12.225Z,1.00
2022-09-04T17:58:42.254Z,0.88
2022-09-04T18:01:18.945Z,1.30
2022-09-04T18:04:20.316Z,0.90
2022-09-04T18:07:57.679Z,0.88
2022-09-04T18:10:19.388Z,1.02
2022-09-04T18:12:51.600Z,1.00
2022-09-04T18:15:34.256Z,1.20
2022-09-04T18:18:17.864Z,0.90
2022-09-04T18:20:51.855Z,1.10
2022-09-04T18:23:50.915Z,1.00
2022-09-04T18:26:39.675Z,1.10
2022-09-04T18:29:55.063Z,1.10
2022-09-04T18:37:12.975Z,0.90
2022-09-04T18:37:18.390Z,0.93
2022-09-04T18:38:11.387Z,0.90
2022-09-04T18:42:21.887Z,1.27
2022-09-04T18:50:21.132Z,1.33
2022-09-04T18:50:35.752Z,1.30
2022-09-04T18:50:49.244Z,1.00
2022-09-04T18:52:19.017Z,1.30
2022-09-04T18:54:49.964Z,1.23
2022-09-04T18:57:40.605Z,1.25
2022-09-04T19:00:12.438Z,1.30
2022-09-04T19:03:11.567Z,1.37
2022-09-04T19:05:44.967Z,1.40
2022-09-04T19:08:24.738Z,1.50
2022-09-04T19:10:59.187Z,1.80
2022-09-04T19:13:36.633Z,1.70
2022-09-04T19:16:13.175Z,1.50
2022-09-04T19:18:46.273Z,2.35
2022-09-04T19:21:21.910Z,1.30
2022-09-04T19:24:21.179Z,1.40
2022-09-04T19:26:57.424Z,1.63
2022-09-04T19:29:49.794Z,1.30
2022-09-04T19:32:36.577Z,1.43
2022-09-04T19:35:17.760Z,1.27
2022-09-04T19:41:00.204Z,1.23
2022-09-04T19:45:59.535Z,1.40
2022-09-04T19:46:03.818Z,1.60
2022-09-04T19:46:44.805Z,1.47
2022-09-04T19:53:06.861Z,1.37
2022-09-04T19:53:30.150Z,1.57
2022-09-04T19:55:24.981Z,1.67
2022-09-04T19:58:11.322Z,1.50
2022-09-04T20:00:49.187Z,1.50
2022-09-04T20:03:46.361Z,1.60
2022-09-04T20:06:21.171Z,1.33
2022-09-04T20:09:21.840Z,1.10
2022-09-04T20:12:12.028Z,1.70
2022-09-04T20:14:55.223Z,1.70
2022-09-04T20:17:40.874Z,1.50
2022-09-04T20:20:23.266Z,1.40
2022-09-04T20:22:53.387Z,1.50
2022-09-04T20:25:49.063Z,1.37
2022-09-04T20:28:39.477Z,1.60
2022-09-04T20:31:39.073Z,1.40
2022-09-04T20:34:43.234Z,1.20
2022-09-04T20:37:38.318Z,1.20
2022-09-04T20:40:27.055Z,1.27
2022-09-04T20:43:03.459Z,1.40
2022-09-04T20:48:09.027Z,1.37
2022-09-04T20:52:52.793Z,1.20
2022-09-04T20:52:57.017Z,1.40
2022-09-04T20:54:52.236Z,1.10
2022-09-04T21:02:31.970Z,1.50
2022-09-04T21:03:10.761Z,1.30
2022-09-04T21:03:28.818Z,1.20
2022-09-04T21:06:06.999Z,1.33
2022-09-04T21:09:32.315Z,1.67
2022-09-04T21:12:16.298Z,1.30
2022-09-04T21:14:48.164Z,1.30
2022-09-04T21:17:34.139Z,1.13
2022-09-04T21:20:29.912Z,1.07
2022-09-04T21:23:29.526Z,1.60
2022-09-04T21:26:18.425Z,1.20
2022-09-04T21:29:06.128Z,1.30
2022-09-04T21:31:56.842Z,1.37
2022-09-04T21:34:51.956Z,1.30
2022-09-04T21:38:00.605Z,1.47
2022-09-04T21:40:51.404Z,1.60
2022-09-04T21:43:43.719Z,1.50
2022-09-04T21:46:29.762Z,1.50
2022-09-04T21:49:07.756Z,1.40
2022-09-04T21:51:46.996Z,1.37
2022-09-04T21:54:38.282Z,1.73
2022-09-04T22:02:25.790Z,1.57
2022-09-04T22:02:43.459Z,1.33
2022-09-04T22:03:15.313Z,1.57
2022-09-04T22:05:53.713Z,1.57
2022-09-04T22:13:26.143Z,1.20
2022-09-04T22:13:38.065Z,1.20
2022-09-04T22:15:07.660Z,1.50
2022-09-04T22:17:46.885Z,1.10
2022-09-04T22:20:43.094Z,1.33
2022-09-04T22:23:38.565Z,1.33
2022-09-04T22:26:24.072Z,1.00
2022-09-04T22:29:17.407Z,1.43
2022-09-04T22:32:10.126Z,1.33
2022-09-04T22:35:36.441Z,1.27
2022-09-04T22:38:08.729Z,1.30
2022-09-04T22:40:57.258Z,1.10
2022-09-04T22:43:26.933Z,1.30
2022-09-04T22:46:12.405Z,1.30
2022-09-04T22:49:16.285Z,1.20
2022-09-04T22:51:53.884Z,1.30
2022-09-04T22:54:55.230Z,1.43
2022-09-04T22:57:31.065Z,1.40
2022-09-04T23:00:16.029Z,1.60
2022-09-04T23:03:07.855Z,1.37
2022-09-04T23:06:50.978Z,1.70
2022-09-04T23:13:48.523Z,1.30
2022-09-04T23:13:49.202Z,1.10
2022-09-04T23:14:53.435Z,1.20
2022-09-04T23:17:59.937Z,1.30
2022-09-04T23:26:34.573Z,1.47
2022-09-04T23:26:44.827Z,1.50
2022-09-04T23:27:02.795Z,2.00
2022-09-04T23:30:12.643Z,1.33
2022-09-04T23:33:27.544Z,1.40
2022-09-04T23:36:47.683Z,1.30
2022-09-04T23:39:32.829Z,1.40
2022-09-04T23:42:11.905Z,1.40
2022-09-04T23:45:07.670Z,1.33
2022-09-04T23:47:49.580Z,1.30
2022-09-04T23:50:39.959Z,1.43
2022-09-04T23:53:12.907Z,1.57
2022-09-04T23:56:07.782Z,1.40
2022-09-04T23:58:59.110Z,1.60
